Time;durP1;ratioP1;P1;durP2;ratioP2;P2;SDS_P1;SDS_P2;PMS_P1;PMS_P2;Temp;Humidity;BMP_temperature;BMP_pressure;BME280_temperature;BME280_humidity;BME280_pressure;Samples;Min_cycle;Max_cycle;Signal;HPM_P1;HPM_P2
2023/02/22 00:01:49;;;;;;;3.15;2.85;;;20.50;59.60;;;;;;4927859;28;88518;-90
2023/02/22 00:04:18;;;;;;;3.45;2.78;;;20.40;59.60;;;;;;4926388;28;88277;-91
2023/02/22 00:06:44;;;;;;;3.38;2.90;;;20.40;59.40;;;;;;4909743;28;88219;-91
2023/02/22 00:09:10;;;;;;;3.28;2.63;;;20.40;59.50;;;;;;4909165;28;89477;-89
2023/02/22 00:11:46;;;;;;;3.25;2.92;;;20.40;59.70;;;;;;4928351;28;88799;-90
2023/02/22 00:14:12;;;;;;;3.13;2.75;;;20.40;59.50;;;;;;4927841;28;86910;-91
2023/02/22 00:16:37;;;;;;;3.25;2.95;;;20.40;59.50;;;;;;4927672;28;86863;-90
2023/02/22 00:19:04;;;;;;;3.58;2.80;;;20.40;59.60;;;;;;4909613;28;89309;-91
2023/02/22 00:21:30;;;;;;;2.45;2.22;;;20.40;59.50;;;;;;4925307;28;89200;-90
2023/02/22 00:23:56;;;;;;;3.45;3.10;;;20.30;60.20;;;;;;4927991;28;88510;-90
2023/02/22 00:26:22;;;;;;;3.60;3.13;;;20.30;59.50;;;;;;4896884;28;87215;-90
2023/02/22 00:28:51;;;;;;;3.88;2.90;;;20.30;59.60;;;;;;4910581;28;91713;-90
2023/02/22 00:31:17;;;;;;;2.67;2.45;;;20.30;59.50;;;;;;4928608;28;90431;-91
2023/02/22 00:33:43;;;;;;;3.40;3.10;;;20.30;59.60;;;;;;4928518;28;88216;-91
2023/02/22 00:36:11;;;;;;;4.03;2.92;;;20.30;59.60;;;;;;4929983;28;87426;-91
2023/02/22 00:38:37;;;;;;;3.30;3.00;;;20.20;59.60;;;;;;4930548;28;87116;-89
2023/02/22 00:41:02;;;;;;;3.35;2.72;;;20.20;59.70;;;;;;4920859;28;88884;-91
2023/02/22 00:56:57;;;;;;;3.15;2.85;;;20.20;59.60;;;;;;4918438;28;91928;-90
2023/02/22 00:59:23;;;;;;;3.70;2.92;;;20.20;59.60;;;;;;4915194;28;87914;-91
2023/02/22 01:01:48;;;;;;;3.10;2.80;;;20.10;59.50;;;;;;4921377;28;90593;-91
2023/02/22 01:04:14;;;;;;;3.13;2.63;;;20.10;59.50;;;;;;4886928;28;89475;-90
2023/02/22 01:06:40;;;;;;;3.60;2.75;;;20.10;59.70;;;;;;4888557;28;92509;-91
2023/02/22 01:09:06;;;;;;;3.13;2.83;;;20.10;59.70;;;;;;4888867;28;87290;-91
2023/02/22 01:11:32;;;;;;;3.40;2.65;;;20.10;60.40;;;;;;4887521;28;90710;-90
2023/02/22 01:13:58;;;;;;;2.65;2.42;;;20.10;59.70;;;;;;4887496;28;90975;-91
2023/02/22 01:16:25;;;;;;;4.15;3.08;;;20.00;59.70;;;;;;4883288;28;91371;-91
2023/02/22 01:18:50;;;;;;;3.28;2.85;;;20.00;59.70;;;;;;4887716;28;87830;-89
2023/02/22 01:21:16;;;;;;;3.13;2.67;;;20.00;59.70;;;;;;4888756;28;90157;-91
2023/02/22 01:23:44;;;;;;;3.35;2.75;;;20.00;59.70;;;;;;4886943;28;91935;-90
2023/02/22 01:26:10;;;;;;;3.15;2.85;;;20.00;59.70;;;;;;4887921;28;88397;-90
2023/02/22 01:28:36;;;;;;;4.45;2.80;;;20.00;59.70;;;;;;4887318;28;87500;-90
2023/02/22 01:31:02;;;;;;;3.10;2.85;;;20.00;59.60;;;;;;4887750;28;90413;-90
2023/02/22 01:33:29;;;;;;;3.22;2.78;;;20.00;59.70;;;;;;4887512;28;88370;-89
2023/02/22 01:35:54;;;;;;;3.28;2.78;;;20.00;59.60;;;;;;4908852;28;91385;-91
2023/02/22 01:38:20;;;;;;;3.25;2.70;;;20.00;59.70;;;;;;4910664;28;87022;-90
2023/02/22 01:40:56;;;;;;;3.35;2.72;;;20.00;59.70;;;;;;4911522;28;88007;-90
2023/02/22 01:46:46;;;;;;;2.85;2.58;;;19.90;59.60;;;;;;4926630;28;87730;-89
2023/02/22 01:49:28;;;;;;;3.25;2.78;;;19.90;59.60;;;;;;4898720;28;88534;-90
2023/02/22 01:51:57;;;;;;;2.65;2.45;;;19.90;59.60;;;;;;4931930;28;87397;-92
2023/02/22 01:54:34;;;;;;;3.15;2.72;;;19.90;59.60;;;;;;4901947;28;92188;-91
2023/02/22 01:57:22;;;;;;;2.45;2.25;;;19.90;59.60;;;;;;4927801;28;88399;-89
2023/02/22 01:59:54;;;;;;;3.38;3.08;;;19.90;59.60;;;;;;4927563;28;87109;-90
2023/02/22 02:02:24;;;;;;;3.00;2.45;;;19.90;59.70;;;;;;4922987;28;89415;-91
2023/02/22 02:04:56;;;;;;;2.67;2.47;;;19.90;59.60;;;;;;4928648;28;88934;-90
2023/02/22 02:07:23;;;;;;;2.15;2.00;;;19.90;59.60;;;;;;4929738;28;90906;-90
2023/02/22 02:10:00;;;;;;;3.55;3.22;;;19.80;59.60;;;;;;4912319;28;87394;-90
2023/02/22 02:12:34;;;;;;;2.92;2.65;;;19.80;59.50;;;;;;4917161;28;90599;-90
2023/02/22 02:15:24;;;;;;;2.50;2.30;;;19.80;59.60;;;;;;4906470;28;91639;-90
2023/02/22 02:17:52;;;;;;;2.92;2.63;;;19.80;59.50;;;;;;4926531;28;88965;-90
2023/02/22 02:20:22;;;;;;;3.10;2.50;;;19.80;59.50;;;;;;4925436;28;87234;-91
2023/02/22 02:23:17;;;;;;;4.13;3.50;;;19.80;59.60;;;;;;4927782;28;88042;-91
2023/02/22 02:25:59;;;;;;;3.10;2.80;;;19.80;59.60;;;;;;4875688;28;88594;-91
2023/02/22 02:28:49;;;;;;;3.65;3.22;;;19.80;59.60;;;;;;4874599;28;90773;-90
2023/02/22 02:31:53;;;;;;;2.88;2.55;;;19.80;59.60;;;;;;4887591;28;87268;-90
2023/02/22 02:34:32;;;;;;;4.32;2.63;;;19.70;59.40;;;;;;4875704;28;88762;-90
2023/02/22 02:37:06;;;;;;;2.63;2.42;;;19.70;59.40;;;;;;4862934;28;91246;-91
2023/02/22 02:39:42;;;;;;;2.78;2.45;;;19.70;59.40;;;;;;4878857;28;87831;-90
2023/02/22 02:49:01;;;;;;;2.65;2.45;;;19.70;59.50;;;;;;4877880;28;87242;-90
2023/02/22 02:51:33;;;;;;;2.95;2.58;;;19.70;59.50;;;;;;4861697;28;90485;-91
2023/02/22 02:54:00;;;;;;;2.67;2.47;;;19.70;60.20;;;;;;4880194;28;87436;-90
2023/02/22 02:56:26;;;;;;;3.30;2.50;;;19.70;59.40;;;;;;4886359;28;90374;-90
2023/02/22 02:58:53;;;;;;;3.55;2.45;;;19.70;59.40;;;;;;4876941;28;90665;-89
2023/02/22 03:05:23;;;;;;;2.65;2.33;;;19.60;59.40;;;;;;4905683;28;87489;-90
2023/02/22 03:07:54;;;;;;;3.25;2.53;;;19.60;59.30;;;;;;4906103;28;90070;-90
2023/02/22 03:10:50;;;;;;;2.28;2.08;;;19.60;59.20;;;;;;4912648;28;91755;-90
2023/02/22 03:13:39;;;;;;;3.00;2.70;;;19.60;59.30;;;;;;4880938;28;91005;-90
2023/02/22 03:22:36;;;;;;;2.70;2.40;;;19.60;59.20;;;;;;4910380;28;87629;-91
2023/02/22 03:25:09;;;;;;;2.50;2.30;;;19.60;59.20;;;;;;4926076;28;90334;-90
2023/02/22 03:27:52;;;;;;;2.85;2.53;;;19.60;59.30;;;;;;4900602;28;87270;-90
2023/02/22 03:30:32;;;;;;;2.47;2.22;;;19.60;59.30;;;;;;4905976;28;89232;-90
2023/02/22 03:33:07;;;;;;;2.67;2.47;;;19.50;59.30;;;;;;4922866;28;91281;-90
2023/02/22 03:35:39;;;;;;;2.78;2.58;;;19.50;59.30;;;;;;4909754;28;91602;-91
2023/02/22 03:42:09;;;;;;;2.78;2.50;;;19.50;59.30;;;;;;4926722;28;90532;-91
2023/02/22 03:44:39;;;;;;;2.90;2.58;;;19.50;59.40;;;;;;4910792;28;94463;-90
2023/02/22 03:47:10;;;;;;;2.40;2.20;;;19.50;59.20;;;;;;4917898;28;91275;-90
2023/02/22 03:49:58;;;;;;;2.50;2.08;;;19.50;59.30;;;;;;4917240;28;87787;-90
2023/02/22 03:53:06;;;;;;;2.80;2.50;;;19.50;59.30;;;;;;4917194;28;90335;-90
2023/02/22 03:55:32;;;;;;;3.33;2.30;;;19.40;59.20;;;;;;4925565;28;91280;-91
2023/02/22 03:58:02;;;;;;;3.13;2.50;;;19.40;59.20;;;;;;4910262;28;91418;-90
2023/02/22 04:00:31;;;;;;;2.20;2.00;;;19.50;59.20;;;;;;4926712;28;87035;-91
2023/02/22 04:02:56;;;;;;;2.40;2.20;;;19.40;59.20;;;;;;4910009;28;92282;-89
2023/02/22 04:05:56;;;;;;;2.63;2.42;;;19.40;59.20;;;;;;4913485;28;95302;-91
2023/02/22 04:08:22;;;;;;;3.08;2.75;;;19.40;59.20;;;;;;4929970;28;97153;-90
2023/02/22 04:10:48;;;;;;;2.47;2.28;;;19.40;59.20;;;;;;4930879;28;86817;-90
2023/02/22 04:13:13;;;;;;;2.60;2.40;;;19.40;59.30;;;;;;4915446;28;90072;-89
2023/02/22 04:15:39;;;;;;;2.92;2.63;;;19.40;59.20;;;;;;4911457;28;91405;-91
2023/02/22 04:28:25;;;;;;;2.72;2.30;;;19.40;59.20;;;;;;4929111;28;87818;-90
2023/02/22 04:30:51;;;;;;;2.47;2.28;;;19.30;59.10;;;;;;4903047;28;91272;-90
2023/02/22 04:33:16;;;;;;;2.65;2.45;;;19.40;59.20;;;;;;4911790;28;87987;-91
2023/02/22 04:35:42;;;;;;;2.35;2.15;;;19.30;59.20;;;;;;4912391;28;89154;-90
2023/02/22 04:38:10;;;;;;;2.45;2.13;;;19.30;59.10;;;;;;4903399;28;90400;-91
2023/02/22 04:40:36;;;;;;;2.75;2.30;;;19.30;59.20;;;;;;4926385;28;87430;-90
2023/02/22 04:43:02;;;;;;;2.55;2.35;;;19.30;59.10;;;;;;4927044;28;86884;-90
2023/02/22 04:49:02;;;;;;;2.40;2.20;;;19.30;59.10;;;;;;4924360;28;87094;-91
2023/02/22 04:51:28;;;;;;;2.60;2.20;;;19.30;59.10;;;;;;4902291;28;90254;-90
2023/02/22 04:53:53;;;;;;;2.65;2.45;;;19.30;59.10;;;;;;4908919;28;87148;-88
2023/02/22 04:56:19;;;;;;;2.30;2.10;;;19.30;59.00;;;;;;4917795;28;90577;-89
2023/02/22 04:58:45;;;;;;;2.20;1.95;;;19.30;59.10;;;;;;4891601;28;91869;-88
2023/02/22 05:01:10;;;;;;;2.58;2.38;;;19.30;59.10;;;;;;4909177;28;90881;-88
2023/02/22 05:27:08;;;;;;;2.85;2.63;;;19.20;59.20;;;;;;4928137;28;91396;-91
2023/02/22 05:29:34;;;;;;;2.28;2.08;;;19.20;59.10;;;;;;4912184;28;88421;-90
2023/02/22 05:32:01;;;;;;;2.33;2.13;;;19.20;59.10;;;;;;4910812;28;90108;-92
2023/02/22 05:34:27;;;;;;;2.30;2.10;;;19.10;59.20;;;;;;4920020;28;91283;-90
2023/02/22 05:36:53;;;;;;;2.30;2.10;;;19.20;59.10;;;;;;4903326;28;90682;-91
2023/02/22 05:39:18;;;;;;;2.55;2.35;;;19.10;59.10;;;;;;4902995;28;86918;-90
2023/02/22 05:41:49;;;;;;;2.42;2.22;;;19.10;59.20;;;;;;4902750;28;90680;-91
2023/02/22 05:44:15;;;;;;;2.50;2.30;;;19.10;59.10;;;;;;4902749;28;91138;-91
2023/02/22 05:46:59;;;;;;;2.88;2.33;;;19.10;59.10;;;;;;4902263;28;90841;-91
2023/02/22 05:49:24;;;;;;;2.33;2.13;;;19.10;59.60;;;;;;4891222;28;87427;-90
2023/02/22 05:51:50;;;;;;;2.45;2.25;;;19.10;59.10;;;;;;4902077;28;90077;-91
2023/02/22 05:54:16;;;;;;;2.35;2.15;;;19.10;59.00;;;;;;4900542;28;92547;-90
2023/02/22 05:56:41;;;;;;;2.28;2.08;;;19.10;59.00;;;;;;4903410;28;92220;-92
2023/02/22 06:02:30;;;;;;;4.22;2.10;;;19.10;58.90;;;;;;4919741;28;90412;-89
2023/02/22 06:04:56;;;;;;;2.10;1.83;;;19.20;58.40;;;;;;4900963;28;92201;-91
2023/02/22 06:07:22;;;;;;;4.03;2.17;;;19.20;58.00;;;;;;4901900;28;90200;-91
2023/02/22 06:09:47;;;;;;;3.53;2.05;;;19.20;58.40;;;;;;4903147;28;87691;-91
2023/02/22 06:12:13;;;;;;;2.53;2.33;;;19.20;58.40;;;;;;4902057;28;89446;-91
2023/02/22 06:14:41;;;;;;;3.35;2.13;;;19.30;58.50;;;;;;4902739;28;91946;-91
2023/02/22 06:17:06;;;;;;;2.13;1.92;;;19.30;58.50;;;;;;4901377;28;91061;-90
2023/02/22 06:19:32;;;;;;;2.30;2.10;;;19.30;58.40;;;;;;4850067;29;88362;-91
2023/02/22 06:21:58;;;;;;;2.95;2.30;;;19.40;58.30;;;;;;4847425;29;90172;-91
2023/02/22 06:24:25;;;;;;;4.30;2.38;;;19.40;58.10;;;;;;4821341;29;90594;-91
2023/02/22 06:27:00;;;;;;;5.85;2.47;;;19.40;57.90;;;;;;4815208;29;90748;-91
2023/02/22 06:29:37;;;;;;;3.92;2.45;;;19.40;57.90;;;;;;4822451;29;87226;-90
2023/02/22 06:32:02;;;;;;;9.32;2.95;;;19.40;57.90;;;;;;4822456;29;90292;-92
2023/02/22 06:34:28;;;;;;;11.15;2.90;;;19.40;57.50;;;;;;4819074;29;92205;-93
2023/02/22 06:36:54;;;;;;;8.18;2.45;;;19.40;57.40;;;;;;4822658;29;90594;-90
2023/02/22 06:39:19;;;;;;;6.07;2.38;;;19.50;57.30;;;;;;4810336;29;87479;-92
2023/02/22 06:45:10;;;;;;;6.97;2.38;;;19.70;57.30;;;;;;4822257;29;92622;-90
2023/02/22 06:47:40;;;;;;;5.38;2.90;;;19.80;57.40;;;;;;4808591;29;92305;-91
2023/02/22 06:50:16;;;;;;;5.43;2.60;;;19.90;57.10;;;;;;4821312;29;87531;-91
2023/02/22 06:52:42;;;;;;;3.13;2.17;;;20.00;57.20;;;;;;4812429;29;91027;-91
2023/02/22 06:55:07;;;;;;;4.70;2.10;;;20.10;57.40;;;;;;4810713;29;91505;-92
2023/02/22 06:57:33;;;;;;;12.40;3.00;;;20.20;57.40;;;;;;4809846;29;91133;-90
2023/02/22 06:59:58;;;;;;;7.63;2.42;;;20.20;57.60;;;;;;4804661;29;87308;-91
2023/02/22 07:02:24;;;;;;;5.13;2.38;;;20.30;57.20;;;;;;4839521;29;89359;-89
2023/02/22 07:04:50;;;;;;;8.05;3.35;;;20.30;57.40;;;;;;4849455;29;90340;-89
2023/02/22 07:07:15;;;;;;;8.43;3.65;;;20.30;57.20;;;;;;4848700;29;91196;-90
2023/02/22 07:09:45;;;;;;;11.95;3.80;;;20.30;57.10;;;;;;4849459;29;88560;-90
2023/02/22 07:15:17;;;;;;;10.30;4.20;;;20.30;57.00;;;;;;4850965;29;87694;-91
2023/02/22 07:17:43;;;;;;;9.95;3.55;;;20.30;57.40;;;;;;4849584;29;92255;-90
2023/02/22 07:20:10;;;;;;;10.27;4.22;;;20.40;56.60;;;;;;4850239;29;88184;-91
2023/02/22 07:22:37;;;;;;;11.98;4.70;;;20.30;56.70;;;;;;4868224;28;90445;-93
2023/02/22 07:25:05;;;;;;;8.43;3.75;;;20.20;57.10;;;;;;4852756;28;90728;-93
2023/02/22 07:27:30;;;;;;;12.68;4.53;;;20.30;57.50;;;;;;4852976;28;91347;-85
2023/02/22 07:29:56;;;;;;;10.48;4.40;;;20.30;57.20;;;;;;4870001;28;87148;-90
2023/02/22 07:32:32;;;;;;;;;;;;;;;;;;;;;
2023/02/22 07:34:57;;;;;;;9.32;3.40;;;20.50;57.40;;;;;;4901443;28;91304;-94
2023/02/22 07:37:23;;;;;;;12.57;4.30;;;20.60;57.40;;;;;;4875021;28;89959;-95
2023/02/22 07:39:49;;;;;;;9.43;3.55;;;20.70;57.40;;;;;;4877498;28;87577;-95
2023/02/22 07:42:17;;;;;;;11.88;3.63;;;20.70;57.40;;;;;;4885191;28;88944;-94
2023/02/22 07:44:43;;;;;;;12.27;4.30;;;20.80;57.40;;;;;;4879851;28;91458;-93
2023/02/22 20:46:02;;;;;;;8.55;3.05;;;23.10;62.30;;;;;;5656311;23;86742;-89
2023/02/22 20:48:28;;;;;;;6.40;2.70;;;23.20;67.10;;;;;;4741704;29;102351;-86
2023/02/22 20:50:54;;;;;;;3.67;2.60;;;23.80;62.10;;;;;;4756132;29;88367;-86
2023/02/22 20:53:20;;;;;;;5.18;2.90;;;23.60;61.30;;;;;;4769085;29;86582;-86
2023/02/22 20:55:54;;;;;;;4.00;2.53;;;23.40;61.90;;;;;;4768152;29;85983;-85
2023/02/22 20:58:20;;;;;;;8.27;2.95;;;23.20;62.70;;;;;;4768427;29;86945;-86
2023/02/22 21:00:45;;;;;;;5.15;2.75;;;23.00;63.20;;;;;;4770837;29;87149;-86
2023/02/22 21:03:11;;;;;;;7.20;3.30;;;22.90;63.90;;;;;;4765618;29;85799;-85
2023/02/22 21:05:46;;;;;;;4.63;2.90;;;22.90;63.40;;;;;;4765780;29;86304;-86
2023/02/22 21:08:14;;;;;;;3.85;2.72;;;22.80;63.80;;;;;;4767732;29;85956;-85
2023/02/22 21:10:44;;;;;;;7.95;3.28;;;22.70;64.40;;;;;;4763768;29;86922;-85
2023/02/22 21:13:10;;;;;;;6.80;4.72;;;22.70;64.70;;;;;;4768932;29;86050;-80
2023/02/22 21:15:37;;;;;;;5.65;3.50;;;22.70;63.40;;;;;;4769515;29;85965;-80
2023/02/22 21:18:03;;;;;;;4.45;3.53;;;22.60;63.80;;;;;;4767631;29;86655;-80
2023/02/22 21:20:29;;;;;;;6.05;3.60;;;22.60;64.30;;;;;;4764807;29;88336;-79
2023/02/22 21:22:55;;;;;;;5.70;3.45;;;22.60;64.30;;;;;;4762730;29;86644;-80
2023/02/22 21:25:22;;;;;;;5.15;2.90;;;22.50;64.40;;;;;;4756714;29;85818;-80
2023/02/22 21:27:47;;;;;;;5.13;2.90;;;22.40;64.30;;;;;;4753952;29;86627;-79
2023/02/22 21:30:13;;;;;;;8.63;3.78;;;22.40;64.60;;;;;;4757257;29;85921;-79
2023/02/22 21:32:40;;;;;;;4.00;2.83;;;22.40;64.70;;;;;;4756263;29;86155;-80
2023/02/22 21:35:06;;;;;;;5.30;2.92;;;22.30;64.80;;;;;;4756216;29;86313;-79
2023/02/22 21:37:35;;;;;;;4.57;3.10;;;22.30;64.90;;;;;;4756684;29;89323;-79
2023/02/22 21:40:00;;;;;;;4.53;3.15;;;22.20;64.90;;;;;;4755270;29;86449;-79
2023/02/22 21:42:26;;;;;;;4.90;3.05;;;22.20;65.10;;;;;;4757620;29;86598;-79
2023/02/22 21:44:55;;;;;;;4.45;2.90;;;22.10;65.20;;;;;;4753218;29;85747;-80
2023/02/22 21:47:23;;;;;;;5.07;3.25;;;22.10;65.30;;;;;;4757308;29;87343;-79
2023/02/22 21:49:49;;;;;;;5.93;3.20;;;22.00;65.70;;;;;;4757439;29;86400;-80
2023/02/22 21:52:15;;;;;;;6.28;3.33;;;22.00;65.40;;;;;;4755784;29;85848;-79
2023/02/22 21:54:41;;;;;;;5.25;2.95;;;21.90;65.30;;;;;;4759332;29;85720;-80
2023/02/22 21:57:07;;;;;;;4.05;3.28;;;21.90;65.50;;;;;;4756181;29;86655;-79
2023/02/22 21:59:34;;;;;;;5.00;3.28;;;21.80;65.60;;;;;;4755514;29;86556;-79
2023/02/22 22:02:00;;;;;;;5.07;3.60;;;21.80;65.70;;;;;;4756438;29;86298;-79
2023/02/22 22:04:31;;;;;;;5.32;3.42;;;21.80;65.60;;;;;;4756847;29;86529;-79
2023/02/22 22:06:58;;;;;;;4.70;3.78;;;21.80;65.80;;;;;;4755212;29;88086;-79
2023/02/22 22:09:31;;;;;;;5.30;3.60;;;21.70;65.70;;;;;;4755139;29;86995;-79
2023/02/22 22:12:03;;;;;;;5.95;3.30;;;21.70;65.60;;;;;;4754761;29;86143;-79
2023/02/22 22:14:31;;;;;;;5.03;3.80;;;21.70;65.60;;;;;;4755013;29;85832;-79
2023/02/22 22:16:58;;;;;;;4.15;3.28;;;21.70;65.70;;;;;;4754488;29;89420;-79
2023/02/22 22:19:29;;;;;;;6.43;3.53;;;21.70;65.70;;;;;;4757100;29;86825;-79
2023/02/22 22:21:56;;;;;;;4.60;3.42;;;21.60;65.60;;;;;;4752338;29;86127;-79
2023/02/22 22:24:22;;;;;;;7.50;4.03;;;21.60;65.70;;;;;;4757712;29;86493;-79
2023/02/22 22:26:53;;;;;;;6.07;4.55;;;21.60;65.60;;;;;;4768567;29;89573;-79
2023/02/22 22:29:19;;;;;;;4.50;3.38;;;21.60;65.50;;;;;;4754807;29;86442;-80
2023/02/22 22:31:45;;;;;;;4.88;3.45;;;21.50;65.50;;;;;;4752484;29;85997;-79
2023/02/22 22:34:11;;;;;;;4.93;3.78;;;21.50;65.80;;;;;;4756184;29;86591;-79
2023/02/22 22:36:36;;;;;;;4.30;3.40;;;21.50;65.90;;;;;;4757021;29;89359;-80
2023/02/22 22:39:12;;;;;;;5.28;3.42;;;21.50;65.90;;;;;;4753459;29;86807;-79
2023/02/22 22:41:43;;;;;;;4.97;3.53;;;21.40;65.60;;;;;;4757695;29;86075;-80
2023/02/22 22:44:09;;;;;;;5.05;3.63;;;21.40;65.70;;;;;;4755495;29;86258;-80
2023/02/22 22:46:39;;;;;;;5.03;3.47;;;21.40;65.80;;;;;;4754869;29;87399;-79
2023/02/22 22:49:11;;;;;;;4.90;3.58;;;21.40;65.80;;;;;;4756706;29;85887;-78
2023/02/22 22:51:37;;;;;;;5.47;3.85;;;21.30;65.90;;;;;;4756227;29;85780;-80
2023/02/22 22:54:04;;;;;;;5.82;3.97;;;21.30;66.00;;;;;;4755081;29;85871;-79
2023/02/22 22:56:34;;;;;;;5.35;3.95;;;21.30;66.20;;;;;;4753470;29;91225;-79
2023/02/22 22:59:00;;;;;;;;;;;21.20;66.20;;;;;;4753861;29;85980;-78
2023/02/22 23:01:32;;;;;;;6.95;3.88;;;21.20;66.40;;;;;;4756955;29;86084;-80
2023/02/22 23:04:01;;;;;;;4.18;3.70;;;21.20;66.40;;;;;;4753328;29;86150;-78
2023/02/22 23:06:39;;;;;;;5.95;3.88;;;21.10;66.10;;;;;;4753542;29;86473;-79
2023/02/22 23:09:11;;;;;;;6.82;4.22;;;21.10;66.20;;;;;;4755471;29;86690;-79
2023/02/22 23:12:16;;;;;;;5.93;4.05;;;21.10;66.40;;;;;;4755457;29;86434;-79
2023/02/22 23:14:44;;;;;;;7.25;4.65;;;21.10;66.50;;;;;;4682307;30;92058;-79
2023/02/22 23:17:14;;;;;;;5.45;3.55;;;21.00;66.60;;;;;;4680268;30;87029;-78
2023/02/22 23:19:43;;;;;;;5.00;3.72;;;21.00;66.40;;;;;;4680866;30;86324;-79
2023/02/22 23:22:12;;;;;;;5.63;3.75;;;21.00;66.40;;;;;;4681887;30;85988;-79
2023/02/22 23:24:39;;;;;;;5.13;3.90;;;21.00;66.50;;;;;;4685080;30;86714;-79
2023/02/22 23:27:06;;;;;;;5.85;3.95;;;21.00;66.50;;;;;;4679931;30;87477;-78
2023/02/22 23:29:36;;;;;;;5.82;3.75;;;20.90;66.60;;;;;;4681615;30;86908;-79
2023/02/22 23:32:04;;;;;;;5.07;4.07;;;20.90;66.80;;;;;;4683507;30;86094;-78
2023/02/22 23:34:30;;;;;;;4.78;3.50;;;20.90;66.50;;;;;;4682211;30;86191;-79
2023/02/22 23:36:56;;;;;;;5.45;3.80;;;20.90;66.40;;;;;;4682882;30;87270;-79
2023/02/22 23:39:22;;;;;;;4.85;3.72;;;20.90;66.40;;;;;;4681490;30;86813;-79
2023/02/22 23:41:52;;;;;;;4.28;3.63;;;20.80;66.40;;;;;;4681425;30;85896;-79
2023/02/22 23:44:18;;;;;;;4.75;3.97;;;20.80;66.50;;;;;;4680939;30;86393;-78
2023/02/22 23:46:46;;;;;;;5.55;4.15;;;20.80;66.60;;;;;;4680185;30;86525;-79
2023/02/22 23:49:19;;;;;;;5.60;4.10;;;20.80;66.50;;;;;;4679800;30;85867;-78
2023/02/22 23:51:45;;;;;;;5.03;4.00;;;20.80;66.50;;;;;;4729986;29;85836;-79
2023/02/22 23:54:14;;;;;;;6.07;4.32;;;20.70;66.50;;;;;;4753548;29;85971;-78
2023/02/22 23:56:46;;;;;;;5.03;3.97;;;20.70;66.60;;;;;;4752975;29;87366;-78
2023/02/22 23:59:12;;;;;;;6.25;3.63;;;20.80;66.80;;;;;;4755343;29;86440;-78
